sensor_id;sensor_type;location;lat;lon;timestamp;P1;durP1;ratioP1;P2;durP2;ratioP2
22973;SDS011;11653;50.848;4.584;2023-10-09T00:01:44;12.93;;;7.60;;
22973;SDS011;11653;50.848;4.584;2023-10-09T00:04:11;12.57;;;7.90;;
22973;SDS011;11653;50.848;4.584;2023-10-09T00:06:39;14.20;;;7.87;;
22973;SDS011;11653;50.848;4.584;2023-10-09T00:09:06;11.97;;;7.53;;
22973;SDS011;11653;50.848;4.584;2023-10-09T00:11:50;15.20;;;8.80;;
22973;SDS011;11653;50.848;4.584;2023-10-09T00:14:24;13.10;;;8.40;;
22973;SDS011;11653;50.848;4.584;2023-10-09T00:16:50;15.07;;;7.87;;
22973;SDS011;11653;50.848;4.584;2023-10-09T00:19:21;12.33;;;7.60;;
22973;SDS011;11653;50.848;4.584;2023-10-09T00:21:58;15.30;;;7.97;;
22973;SDS011;11653;50.848;4.584;2023-10-09T00:24:31;13.23;;;8.00;;
22973;SDS011;11653;50.848;4.584;2023-10-09T00:26:57;13.47;;;7.97;;
22973;SDS011;11653;50.848;4.584;2023-10-09T00:29:42;14.17;;;7.77;;
22973;SDS011;11653;50.848;4.584;2023-10-09T00:32:09;12.60;;;7.87;;
22973;SDS011;11653;50.848;4.584;2023-10-09T00:34:47;10.43;;;7.43;;
22973;SDS011;11653;50.848;4.584;2023-10-09T00:37:15;13.10;;;7.90;;
22973;SDS011;11653;50.848;4.584;2023-10-09T00:39:45;15.17;;;7.93;;
22973;SDS011;11653;50.848;4.584;2023-10-09T00:42:14;12.47;;;7.90;;
22973;SDS011;11653;50.848;4.584;2023-10-09T00:44:52;14.73;;;8.93;;
22973;SDS011;11653;50.848;4.584;2023-10-09T00:47:19;12.20;;;7.67;;
22973;SDS011;11653;50.848;4.584;2023-10-09T00:49:52;12.37;;;7.93;;
22973;SDS011;11653;50.848;4.584;2023-10-09T00:52:31;10.17;;;7.10;;
22973;SDS011;11653;50.848;4.584;2023-10-09T00:55:08;12.03;;;7.53;;
22973;SDS011;11653;50.848;4.584;2023-10-09T00:57:41;16.17;;;7.83;;
22973;SDS011;11653;50.848;4.584;2023-10-09T01:00:15;14.80;;;7.33;;
22973;SDS011;11653;50.848;4.584;2023-10-09T01:02:57;14.63;;;7.77;;
22973;SDS011;11653;50.848;4.584;2023-10-09T01:05:59;12.00;;;7.70;;
22973;SDS011;11653;50.848;4.584;2023-10-09T01:08:37;13.00;;;8.33;;
22973;SDS011;11653;50.848;4.584;2023-10-09T01:11:16;14.87;;;7.40;;
22973;SDS011;11653;50.848;4.584;2023-10-09T01:13:54;12.53;;;7.00;;
22973;SDS011;11653;50.848;4.584;2023-10-09T01:16:28;12.93;;;7.27;;
22973;SDS011;11653;50.848;4.584;2023-10-09T01:18:56;12.93;;;7.83;;
22973;SDS011;11653;50.848;4.584;2023-10-09T01:21:25;13.30;;;8.43;;
22973;SDS011;11653;50.848;4.584;2023-10-09T01:23:52;13.20;;;7.60;;
22973;SDS011;11653;50.848;4.584;2023-10-09T01:26:44;17.20;;;7.47;;
22973;SDS011;11653;50.848;4.584;2023-10-09T01:29:10;13.83;;;7.33;;
22973;SDS011;11653;50.848;4.584;2023-10-09T01:31:40;13.40;;;7.70;;
22973;SDS011;11653;50.848;4.584;2023-10-09T01:34:15;15.93;;;7.77;;
22973;SDS011;11653;50.848;4.584;2023-10-09T01:36:42;14.13;;;7.63;;
22973;SDS011;11653;50.848;4.584;2023-10-09T01:39:08;14.40;;;7.97;;
22973;SDS011;11653;50.848;4.584;2023-10-09T01:41:49;14.80;;;7.77;;
22973;SDS011;11653;50.848;4.584;2023-10-09T01:44:23;13.90;;;7.80;;
22973;SDS011;11653;50.848;4.584;2023-10-09T01:46:51;12.43;;;7.70;;
22973;SDS011;11653;50.848;4.584;2023-10-09T01:49:20;13.83;;;7.17;;
22973;SDS011;11653;50.848;4.584;2023-10-09T01:51:55;10.30;;;6.70;;
22973;SDS011;11653;50.848;4.584;2023-10-09T01:54:25;15.60;;;8.30;;
22973;SDS011;11653;50.848;4.584;2023-10-09T01:57:04;12.67;;;7.87;;
22973;SDS011;11653;50.848;4.584;2023-10-09T01:59:36;13.83;;;7.50;;
22973;SDS011;11653;50.848;4.584;2023-10-09T02:02:06;16.27;;;8.20;;
22973;SDS011;11653;50.848;4.584;2023-10-09T02:04:54;15.43;;;8.10;;
22973;SDS011;11653;50.848;4.584;2023-10-09T02:07:35;15.37;;;7.17;;
22973;SDS011;11653;50.848;4.584;2023-10-09T02:10:10;12.87;;;7.43;;
22973;SDS011;11653;50.848;4.584;2023-10-09T02:13:05;12.30;;;7.60;;
22973;SDS011;11653;50.848;4.584;2023-10-09T02:15:33;12.97;;;7.97;;
22973;SDS011;11653;50.848;4.584;2023-10-09T02:18:09;15.27;;;7.90;;
22973;SDS011;11653;50.848;4.584;2023-10-09T02:20:51;16.23;;;8.40;;
22973;SDS011;11653;50.848;4.584;2023-10-09T02:23:28;13.00;;;7.90;;
22973;SDS011;11653;50.848;4.584;2023-10-09T02:26:13;9.27;;;6.97;;
22973;SDS011;11653;50.848;4.584;2023-10-09T02:28:59;13.37;;;7.27;;
22973;SDS011;11653;50.848;4.584;2023-10-09T02:31:28;14.93;;;7.40;;
22973;SDS011;11653;50.848;4.584;2023-10-09T02:34:14;12.60;;;7.97;;
22973;SDS011;11653;50.848;4.584;2023-10-09T02:36:40;15.67;;;8.10;;
22973;SDS011;11653;50.848;4.584;2023-10-09T02:39:07;11.93;;;8.10;;
22973;SDS011;11653;50.848;4.584;2023-10-09T02:41:53;13.63;;;7.53;;
22973;SDS011;11653;50.848;4.584;2023-10-09T02:44:40;16.17;;;8.37;;
22973;SDS011;11653;50.848;4.584;2023-10-09T02:47:11;13.67;;;7.97;;
22973;SDS011;11653;50.848;4.584;2023-10-09T02:49:45;14.13;;;8.00;;
22973;SDS011;11653;50.848;4.584;2023-10-09T02:52:13;14.83;;;7.93;;
22973;SDS011;11653;50.848;4.584;2023-10-09T02:54:43;12.53;;;7.73;;
22973;SDS011;11653;50.848;4.584;2023-10-09T02:57:12;12.37;;;7.27;;
22973;SDS011;11653;50.848;4.584;2023-10-09T02:59:47;16.87;;;7.23;;
22973;SDS011;11653;50.848;4.584;2023-10-09T03:02:16;13.03;;;7.80;;
22973;SDS011;11653;50.848;4.584;2023-10-09T03:04:44;11.93;;;7.17;;
22973;SDS011;11653;50.848;4.584;2023-10-09T03:07:10;13.60;;;7.17;;
22973;SDS011;11653;50.848;4.584;2023-10-09T03:09:38;16.87;;;7.93;;
22973;SDS011;11653;50.848;4.584;2023-10-09T03:12:05;17.80;;;8.17;;
22973;SDS011;11653;50.848;4.584;2023-10-09T03:14:35;14.07;;;8.50;;
22973;SDS011;11653;50.848;4.584;2023-10-09T03:17:06;16.20;;;8.47;;
22973;SDS011;11653;50.848;4.584;2023-10-09T03:19:36;13.53;;;8.20;;
22973;SDS011;11653;50.848;4.584;2023-10-09T03:22:06;14.90;;;8.47;;
22973;SDS011;11653;50.848;4.584;2023-10-09T03:24:35;17.80;;;8.93;;
22973;SDS011;11653;50.848;4.584;2023-10-09T03:27:02;17.20;;;8.37;;
22973;SDS011;11653;50.848;4.584;2023-10-09T03:29:28;17.00;;;8.57;;
22973;SDS011;11653;50.848;4.584;2023-10-09T03:31:53;12.47;;;8.33;;
22973;SDS011;11653;50.848;4.584;2023-10-09T03:34:21;15.00;;;8.63;;
22973;SDS011;11653;50.848;4.584;2023-10-09T03:36:47;15.83;;;8.60;;
22973;SDS011;11653;50.848;4.584;2023-10-09T03:39:13;17.30;;;8.40;;
22973;SDS011;11653;50.848;4.584;2023-10-09T03:41:58;15.40;;;8.37;;
22973;SDS011;11653;50.848;4.584;2023-10-09T03:44:24;13.10;;;8.23;;
22973;SDS011;11653;50.848;4.584;2023-10-09T03:46:54;15.20;;;8.30;;
22973;SDS011;11653;50.848;4.584;2023-10-09T03:49:20;15.53;;;8.80;;
22973;SDS011;11653;50.848;4.584;2023-10-09T03:51:49;12.20;;;7.53;;
22973;SDS011;11653;50.848;4.584;2023-10-09T03:54:15;14.57;;;8.17;;
22973;SDS011;11653;50.848;4.584;2023-10-09T03:56:45;17.77;;;8.50;;
22973;SDS011;11653;50.848;4.584;2023-10-09T03:59:20;15.60;;;8.10;;
22973;SDS011;11653;50.848;4.584;2023-10-09T04:01:49;15.50;;;8.13;;
22973;SDS011;11653;50.848;4.584;2023-10-09T04:04:18;13.40;;;8.33;;
22973;SDS011;11653;50.848;4.584;2023-10-09T04:06:47;14.43;;;8.47;;
22973;SDS011;11653;50.848;4.584;2023-10-09T04:09:13;13.10;;;7.87;;
22973;SDS011;11653;50.848;4.584;2023-10-09T04:11:59;13.70;;;8.23;;
22973;SDS011;11653;50.848;4.584;2023-10-09T04:14:37;21.13;;;9.03;;
22973;SDS011;11653;50.848;4.584;2023-10-09T04:17:15;20.67;;;9.90;;
22973;SDS011;11653;50.848;4.584;2023-10-09T04:19:49;13.97;;;8.10;;
22973;SDS011;11653;50.848;4.584;2023-10-09T04:22:36;18.80;;;8.77;;
22973;SDS011;11653;50.848;4.584;2023-10-09T04:25:05;13.17;;;8.30;;
22973;SDS011;11653;50.848;4.584;2023-10-09T04:27:43;16.33;;;8.43;;
22973;SDS011;11653;50.848;4.584;2023-10-09T04:30:12;16.73;;;8.43;;
22973;SDS011;11653;50.848;4.584;2023-10-09T04:32:41;14.83;;;8.97;;
22973;SDS011;11653;50.848;4.584;2023-10-09T04:35:09;16.13;;;9.50;;
22973;SDS011;11653;50.848;4.584;2023-10-09T04:37:45;17.80;;;9.60;;
22973;SDS011;11653;50.848;4.584;2023-10-09T04:40:17;15.63;;;8.27;;
22973;SDS011;11653;50.848;4.584;2023-10-09T04:43:02;14.60;;;9.37;;
22973;SDS011;11653;50.848;4.584;2023-10-09T04:45:31;12.97;;;8.00;;
22973;SDS011;11653;50.848;4.584;2023-10-09T04:48:09;16.17;;;8.87;;
22973;SDS011;11653;50.848;4.584;2023-10-09T04:50:35;16.33;;;8.70;;
22973;SDS011;11653;50.848;4.584;2023-10-09T04:53:10;17.73;;;9.07;;
22973;SDS011;11653;50.848;4.584;2023-10-09T04:55:40;20.60;;;9.10;;
22973;SDS011;11653;50.848;4.584;2023-10-09T04:58:09;24.53;;;10.50;;
22973;SDS011;11653;50.848;4.584;2023-10-09T05:00:38;19.03;;;10.17;;
22973;SDS011;11653;50.848;4.584;2023-10-09T05:03:07;21.43;;;11.13;;
22973;SDS011;11653;50.848;4.584;2023-10-09T05:05:37;16.17;;;9.17;;
22973;SDS011;11653;50.848;4.584;2023-10-09T05:11:02;15.23;;;9.73;;
22973;SDS011;11653;50.848;4.584;2023-10-09T05:13:29;15.43;;;9.80;;
22973;SDS011;11653;50.848;4.584;2023-10-09T05:16:05;21.07;;;10.00;;
22973;SDS011;11653;50.848;4.584;2023-10-09T05:19:11;19.03;;;10.53;;
22973;SDS011;11653;50.848;4.584;2023-10-09T05:21:53;17.73;;;10.07;;
22973;SDS011;11653;50.848;4.584;2023-10-09T05:24:23;15.07;;;9.67;;
22973;SDS011;11653;50.848;4.584;2023-10-09T05:26:51;17.00;;;9.43;;
22973;SDS011;11653;50.848;4.584;2023-10-09T05:29:18;17.77;;;9.57;;
22973;SDS011;11653;50.848;4.584;2023-10-09T05:31:48;16.00;;;9.70;;
22973;SDS011;11653;50.848;4.584;2023-10-09T05:34:33;18.00;;;10.20;;
22973;SDS011;11653;50.848;4.584;2023-10-09T05:37:03;17.60;;;10.23;;
22973;SDS011;11653;50.848;4.584;2023-10-09T05:39:47;18.13;;;10.27;;
22973;SDS011;11653;50.848;4.584;2023-10-09T05:42:43;17.30;;;10.47;;
22973;SDS011;11653;50.848;4.584;2023-10-09T05:45:14;21.50;;;11.27;;
22973;SDS011;11653;50.848;4.584;2023-10-09T05:47:59;20.03;;;10.37;;
22973;SDS011;11653;50.848;4.584;2023-10-09T05:50:27;17.13;;;10.23;;
22973;SDS011;11653;50.848;4.584;2023-10-09T05:52:57;22.00;;;10.67;;
22973;SDS011;11653;50.848;4.584;2023-10-09T05:55:26;18.77;;;10.50;;
22973;SDS011;11653;50.848;4.584;2023-10-09T05:57:55;19.60;;;10.27;;
22973;SDS011;11653;50.848;4.584;2023-10-09T06:00:40;19.03;;;10.73;;
22973;SDS011;11653;50.848;4.584;2023-10-09T06:03:24;22.67;;;10.97;;
22973;SDS011;11653;50.848;4.584;2023-10-09T06:06:13;22.00;;;11.43;;
22973;SDS011;11653;50.848;4.584;2023-10-09T06:09:04;21.97;;;11.70;;
22973;SDS011;11653;50.848;4.584;2023-10-09T06:11:43;21.30;;;11.33;;
22973;SDS011;11653;50.848;4.584;2023-10-09T06:14:20;18.83;;;11.50;;
22973;SDS011;11653;50.848;4.584;2023-10-09T06:16:55;20.57;;;11.07;;
22973;SDS011;11653;50.848;4.584;2023-10-09T06:19:26;22.07;;;11.57;;
22973;SDS011;11653;50.848;4.584;2023-10-09T06:21:56;20.10;;;11.77;;
22973;SDS011;11653;50.848;4.584;2023-10-09T06:24:42;19.33;;;10.67;;
22973;SDS011;11653;50.848;4.584;2023-10-09T06:27:19;21.77;;;12.03;;
22973;SDS011;11653;50.848;4.584;2023-10-09T06:29:55;18.23;;;11.20;;
22973;SDS011;11653;50.848;4.584;2023-10-09T06:32:41;20.10;;;10.70;;
22973;SDS011;11653;50.848;4.584;2023-10-09T06:35:22;24.00;;;11.53;;
22973;SDS011;11653;50.848;4.584;2023-10-09T06:37:58;21.30;;;12.10;;
22973;SDS011;11653;50.848;4.584;2023-10-09T06:40:27;17.50;;;12.03;;
22973;SDS011;11653;50.848;4.584;2023-10-09T06:43:02;18.77;;;11.47;;
22973;SDS011;11653;50.848;4.584;2023-10-09T06:45:35;17.97;;;11.67;;
22973;SDS011;11653;50.848;4.584;2023-10-09T06:48:13;20.50;;;11.27;;
22973;SDS011;11653;50.848;4.584;2023-10-09T06:51:14;21.10;;;11.70;;
22973;SDS011;11653;50.848;4.584;2023-10-09T06:53:52;23.37;;;11.53;;
22973;SDS011;11653;50.848;4.584;2023-10-09T06:56:29;27.47;;;13.00;;
22973;SDS011;11653;50.848;4.584;2023-10-09T06:58:55;16.80;;;12.00;;
22973;SDS011;11653;50.848;4.584;2023-10-09T07:01:26;24.10;;;11.77;;
22973;SDS011;11653;50.848;4.584;2023-10-09T07:04:13;22.30;;;12.53;;
22973;SDS011;11653;50.848;4.584;2023-10-09T07:09:10;21.10;;;11.50;;
22973;SDS011;11653;50.848;4.584;2023-10-09T07:11:57;19.70;;;11.67;;
22973;SDS011;11653;50.848;4.584;2023-10-09T07:14:24;20.83;;;12.43;;
22973;SDS011;11653;50.848;4.584;2023-10-09T07:16:56;25.10;;;11.77;;
22973;SDS011;11653;50.848;4.584;2023-10-09T07:19:32;19.77;;;11.63;;
22973;SDS011;11653;50.848;4.584;2023-10-09T07:22:23;22.37;;;11.60;;
22973;SDS011;11653;50.848;4.584;2023-10-09T07:24:55;20.67;;;12.17;;
22973;SDS011;11653;50.848;4.584;2023-10-09T07:30:19;25.73;;;12.20;;
22973;SDS011;11653;50.848;4.584;2023-10-09T07:32:55;18.83;;;11.13;;
22973;SDS011;11653;50.848;4.584;2023-10-09T07:35:31;18.87;;;11.30;;
22973;SDS011;11653;50.848;4.584;2023-10-09T07:40:45;19.87;;;11.20;;
22973;SDS011;11653;50.848;4.584;2023-10-09T07:43:25;19.43;;;11.40;;
22973;SDS011;11653;50.848;4.584;2023-10-09T07:46:05;20.27;;;12.03;;
22973;SDS011;11653;50.848;4.584;2023-10-09T07:48:50;18.57;;;10.43;;
22973;SDS011;11653;50.848;4.584;2023-10-09T07:51:19;17.90;;;10.40;;
22973;SDS011;11653;50.848;4.584;2023-10-09T07:53:52;19.13;;;11.47;;
22973;SDS011;11653;50.848;4.584;2023-10-09T07:56:38;19.07;;;11.17;;
22973;SDS011;11653;50.848;4.584;2023-10-09T07:59:11;18.87;;;10.07;;
22973;SDS011;11653;50.848;4.584;2023-10-09T08:01:42;18.67;;;10.20;;
22973;SDS011;11653;50.848;4.584;2023-10-09T08:04:18;22.47;;;10.43;;
22973;SDS011;11653;50.848;4.584;2023-10-09T08:07:02;18.87;;;9.97;;
22973;SDS011;11653;50.848;4.584;2023-10-09T08:09:53;13.93;;;9.20;;
22973;SDS011;11653;50.848;4.584;2023-10-09T08:12:41;14.97;;;9.03;;
22973;SDS011;11653;50.848;4.584;2023-10-09T08:15:19;16.07;;;9.27;;
22973;SDS011;11653;50.848;4.584;2023-10-09T08:17:47;15.90;;;9.73;;
22973;SDS011;11653;50.848;4.584;2023-10-09T08:20:24;16.33;;;9.57;;
22973;SDS011;11653;50.848;4.584;2023-10-09T08:23:01;21.53;;;9.80;;
22973;SDS011;11653;50.848;4.584;2023-10-09T08:25:29;17.23;;;9.27;;
22973;SDS011;11653;50.848;4.584;2023-10-09T08:28:01;18.03;;;9.63;;
22973;SDS011;11653;50.848;4.584;2023-10-09T08:30:39;19.87;;;10.13;;
22973;SDS011;11653;50.848;4.584;2023-10-09T08:33:20;18.73;;;10.33;;
22973;SDS011;11653;50.848;4.584;2023-10-09T08:35:55;22.97;;;10.40;;
22973;SDS011;11653;50.848;4.584;2023-10-09T08:38:30;15.03;;;9.87;;
22973;SDS011;11653;50.848;4.584;2023-10-09T08:41:17;15.03;;;9.10;;
22973;SDS011;11653;50.848;4.584;2023-10-09T08:43:47;15.83;;;9.97;;
22973;SDS011;11653;50.848;4.584;2023-10-09T08:46:21;19.03;;;10.23;;
22973;SDS011;11653;50.848;4.584;2023-10-09T08:48:57;17.57;;;10.20;;
22973;SDS011;11653;50.848;4.584;2023-10-09T08:51:24;18.50;;;9.70;;
22973;SDS011;11653;50.848;4.584;2023-10-09T08:53:54;22.63;;;10.30;;
22973;SDS011;11653;50.848;4.584;2023-10-09T08:56:21;16.37;;;9.63;;
22973;SDS011;11653;50.848;4.584;2023-10-09T08:58:48;17.17;;;9.63;;
22973;SDS011;11653;50.848;4.584;2023-10-09T09:01:18;17.93;;;9.23;;
22973;SDS011;11653;50.848;4.584;2023-10-09T09:03:46;14.10;;;8.60;;
22973;SDS011;11653;50.848;4.584;2023-10-09T09:06:13;15.70;;;9.10;;
22973;SDS011;11653;50.848;4.584;2023-10-09T09:08:39;17.27;;;8.90;;
22973;SDS011;11653;50.848;4.584;2023-10-09T09:11:15;16.77;;;9.30;;
22973;SDS011;11653;50.848;4.584;2023-10-09T09:16:44;17.03;;;7.83;;
22973;SDS011;11653;50.848;4.584;2023-10-09T09:19:13;15.90;;;8.13;;
22973;SDS011;11653;50.848;4.584;2023-10-09T09:21:52;19.87;;;8.53;;
22973;SDS011;11653;50.848;4.584;2023-10-09T09:24:36;15.70;;;8.70;;
22973;SDS011;11653;50.848;4.584;2023-10-09T09:27:02;15.17;;;8.57;;
22973;SDS011;11653;50.848;4.584;2023-10-09T09:32:06;17.70;;;9.27;;
22973;SDS011;11653;50.848;4.584;2023-10-09T09:34:46;14.73;;;8.07;;
22973;SDS011;11653;50.848;4.584;2023-10-09T09:37:26;16.23;;;8.30;;
22973;SDS011;11653;50.848;4.584;2023-10-09T09:39:59;16.27;;;8.73;;
22973;SDS011;11653;50.848;4.584;2023-10-09T09:42:29;19.97;;;8.43;;
22973;SDS011;11653;50.848;4.584;2023-10-09T09:45:00;15.97;;;8.20;;
22973;SDS011;11653;50.848;4.584;2023-10-09T09:47:27;16.40;;;8.53;;
22973;SDS011;11653;50.848;4.584;2023-10-09T09:49:55;18.47;;;8.53;;
22973;SDS011;11653;50.848;4.584;2023-10-09T09:52:37;15.03;;;8.67;;
22973;SDS011;11653;50.848;4.584;2023-10-09T09:55:03;17.73;;;9.03;;
22973;SDS011;11653;50.848;4.584;2023-10-09T09:57:30;17.50;;;8.77;;
22973;SDS011;11653;50.848;4.584;2023-10-09T10:00:02;14.60;;;7.87;;
22973;SDS011;11653;50.848;4.584;2023-10-09T10:02:35;17.43;;;9.20;;
22973;SDS011;11653;50.848;4.584;2023-10-09T10:05:04;17.17;;;8.77;;
22973;SDS011;11653;50.848;4.584;2023-10-09T10:07:36;17.77;;;8.17;;
22973;SDS011;11653;50.848;4.584;2023-10-09T10:13:17;14.80;;;8.63;;
22973;SDS011;11653;50.848;4.584;2023-10-09T10:19:00;14.03;;;8.70;;
22973;SDS011;11653;50.848;4.584;2023-10-09T10:21:46;15.33;;;9.00;;
22973;SDS011;11653;50.848;4.584;2023-10-09T10:27:15;15.97;;;8.07;;
22973;SDS011;11653;50.848;4.584;2023-10-09T10:33:00;14.53;;;8.50;;
22973;SDS011;11653;50.848;4.584;2023-10-09T10:35:37;14.47;;;8.20;;
22973;SDS011;11653;50.848;4.584;2023-10-09T10:43:37;18.73;;;9.00;;
22973;SDS011;11653;50.848;4.584;2023-10-09T10:46:18;14.83;;;7.73;;
22973;SDS011;11653;50.848;4.584;2023-10-09T10:49:02;15.53;;;8.30;;
22973;SDS011;11653;50.848;4.584;2023-10-09T10:51:36;16.13;;;8.73;;
22973;SDS011;11653;50.848;4.584;2023-10-09T10:54:05;13.93;;;7.63;;
22973;SDS011;11653;50.848;4.584;2023-10-09T10:56:50;16.73;;;8.53;;
22973;SDS011;11653;50.848;4.584;2023-10-09T10:59:17;14.00;;;8.60;;
22973;SDS011;11653;50.848;4.584;2023-10-09T11:01:52;13.50;;;8.03;;
22973;SDS011;11653;50.848;4.584;2023-10-09T11:04:25;14.17;;;8.70;;
22973;SDS011;11653;50.848;4.584;2023-10-09T11:06:55;15.10;;;8.10;;
22973;SDS011;11653;50.848;4.584;2023-10-09T11:09:51;15.23;;;7.63;;
22973;SDS011;11653;50.848;4.584;2023-10-09T11:12:51;16.13;;;8.00;;
22973;SDS011;11653;50.848;4.584;2023-10-09T11:15:32;16.87;;;8.40;;
22973;SDS011;11653;50.848;4.584;2023-10-09T11:18:13;16.33;;;8.10;;
22973;SDS011;11653;50.848;4.584;2023-10-09T11:20:50;16.03;;;8.13;;
22973;SDS011;11653;50.848;4.584;2023-10-09T11:23:29;14.77;;;7.50;;
22973;SDS011;11653;50.848;4.584;2023-10-09T11:25:58;16.20;;;8.07;;
22973;SDS011;11653;50.848;4.584;2023-10-09T11:28:44;15.77;;;8.27;;
22973;SDS011;11653;50.848;4.584;2023-10-09T11:31:22;16.17;;;8.37;;
22973;SDS011;11653;50.848;4.584;2023-10-09T11:33:52;13.80;;;8.07;;
22973;SDS011;11653;50.848;4.584;2023-10-09T11:36:19;13.70;;;8.30;;
22973;SDS011;11653;50.848;4.584;2023-10-09T11:38:58;18.10;;;9.33;;
22973;SDS011;11653;50.848;4.584;2023-10-09T11:41:43;15.33;;;8.37;;
22973;SDS011;11653;50.848;4.584;2023-10-09T11:44:09;16.50;;;8.17;;
22973;SDS011;11653;50.848;4.584;2023-10-09T11:46:58;19.27;;;8.07;;
22973;SDS011;11653;50.848;4.584;2023-10-09T11:49:49;12.63;;;7.83;;
22973;SDS011;11653;50.848;4.584;2023-10-09T11:52:26;15.63;;;7.90;;
22973;SDS011;11653;50.848;4.584;2023-10-09T11:55:03;13.87;;;9.37;;
22973;SDS011;11653;50.848;4.584;2023-10-09T11:57:39;15.90;;;8.90;;
22973;SDS011;11653;50.848;4.584;2023-10-09T12:00:05;14.43;;;8.97;;
22973;SDS011;11653;50.848;4.584;2023-10-09T12:02:50;15.87;;;8.60;;
22973;SDS011;11653;50.848;4.584;2023-10-09T12:05:17;15.37;;;8.03;;
22973;SDS011;11653;50.848;4.584;2023-10-09T12:07:44;16.43;;;8.53;;
22973;SDS011;11653;50.848;4.584;2023-10-09T12:10:20;12.60;;;7.83;;
22973;SDS011;11653;50.848;4.584;2023-10-09T12:12:51;13.63;;;7.33;;
22973;SDS011;11653;50.848;4.584;2023-10-09T12:15:23;19.87;;;10.67;;
22973;SDS011;11653;50.848;4.584;2023-10-09T12:17:49;17.93;;;8.00;;
22973;SDS011;11653;50.848;4.584;2023-10-09T12:20:18;16.57;;;8.07;;
22973;SDS011;11653;50.848;4.584;2023-10-09T12:22:57;15.73;;;7.47;;
22973;SDS011;11653;50.848;4.584;2023-10-09T12:25:24;17.87;;;7.77;;
22973;SDS011;11653;50.848;4.584;2023-10-09T12:27:50;13.17;;;7.90;;
22973;SDS011;11653;50.848;4.584;2023-10-09T12:30:22;14.67;;;7.37;;
22973;SDS011;11653;50.848;4.584;2023-10-09T12:32:54;14.37;;;8.07;;
22973;SDS011;11653;50.848;4.584;2023-10-09T12:35:22;14.20;;;8.47;;
22973;SDS011;11653;50.848;4.584;2023-10-09T12:37:50;18.43;;;8.97;;
22973;SDS011;11653;50.848;4.584;2023-10-09T12:40:23;19.87;;;8.10;;
22973;SDS011;11653;50.848;4.584;2023-10-09T12:42:52;16.17;;;8.57;;
22973;SDS011;11653;50.848;4.584;2023-10-09T12:45:21;17.07;;;8.70;;
22973;SDS011;11653;50.848;4.584;2023-10-09T12:47:57;17.57;;;9.93;;
22973;SDS011;11653;50.848;4.584;2023-10-09T12:50:33;14.37;;;8.80;;
22973;SDS011;11653;50.848;4.584;2023-10-09T12:53:00;11.17;;;7.97;;
22973;SDS011;11653;50.848;4.584;2023-10-09T12:55:35;19.97;;;8.73;;
22973;SDS011;11653;50.848;4.584;2023-10-09T12:58:05;16.87;;;9.10;;
22973;SDS011;11653;50.848;4.584;2023-10-09T13:00:33;14.07;;;9.10;;
22973;SDS011;11653;50.848;4.584;2023-10-09T13:03:02;17.80;;;9.00;;
22973;SDS011;11653;50.848;4.584;2023-10-09T13:05:38;17.07;;;9.47;;
22973;SDS011;11653;50.848;4.584;2023-10-09T13:08:17;13.00;;;8.17;;
22973;SDS011;11653;50.848;4.584;2023-10-09T13:10:46;16.37;;;8.70;;
22973;SDS011;11653;50.848;4.584;2023-10-09T13:13:19;19.10;;;8.37;;
22973;SDS011;11653;50.848;4.584;2023-10-09T13:15:45;13.90;;;9.20;;
22973;SDS011;11653;50.848;4.584;2023-10-09T13:18:11;16.17;;;9.07;;
22973;SDS011;11653;50.848;4.584;2023-10-09T13:20:37;16.43;;;9.03;;
22973;SDS011;11653;50.848;4.584;2023-10-09T13:23:03;20.60;;;9.13;;
22973;SDS011;11653;50.848;4.584;2023-10-09T13:25:28;19.33;;;9.40;;
22973;SDS011;11653;50.848;4.584;2023-10-09T13:28:04;15.77;;;8.87;;
22973;SDS011;11653;50.848;4.584;2023-10-09T13:30:30;20.63;;;9.60;;
22973;SDS011;11653;50.848;4.584;2023-10-09T13:33:04;13.70;;;9.20;;
22973;SDS011;11653;50.848;4.584;2023-10-09T13:35:30;14.70;;;8.53;;
22973;SDS011;11653;50.848;4.584;2023-10-09T13:38:02;16.93;;;9.63;;
22973;SDS011;11653;50.848;4.584;2023-10-09T13:40:33;14.37;;;8.60;;
22973;SDS011;11653;50.848;4.584;2023-10-09T13:43:00;15.63;;;9.10;;
22973;SDS011;11653;50.848;4.584;2023-10-09T13:45:26;17.93;;;8.80;;
22973;SDS011;11653;50.848;4.584;2023-10-09T13:47:56;17.67;;;9.97;;
22973;SDS011;11653;50.848;4.584;2023-10-09T13:50:25;15.27;;;9.57;;
22973;SDS011;11653;50.848;4.584;2023-10-09T13:52:58;20.17;;;9.30;;
22973;SDS011;11653;50.848;4.584;2023-10-09T13:55:24;20.70;;;10.03;;
22973;SDS011;11653;50.848;4.584;2023-10-09T13:57:56;18.73;;;9.93;;
22973;SDS011;11653;50.848;4.584;2023-10-09T14:00:25;21.27;;;9.93;;
22973;SDS011;11653;50.848;4.584;2023-10-09T14:03:07;17.63;;;9.90;;
22973;SDS011;11653;50.848;4.584;2023-10-09T14:05:39;21.20;;;10.47;;
22973;SDS011;11653;50.848;4.584;2023-10-09T14:08:22;17.27;;;10.17;;
22973;SDS011;11653;50.848;4.584;2023-10-09T14:10:51;18.23;;;9.70;;
22973;SDS011;11653;50.848;4.584;2023-10-09T14:13:16;19.63;;;10.23;;
22973;SDS011;11653;50.848;4.584;2023-10-09T14:15:43;21.77;;;9.73;;
22973;SDS011;11653;50.848;4.584;2023-10-09T14:18:11;19.93;;;9.40;;
22973;SDS011;11653;50.848;4.584;2023-10-09T14:20:37;18.67;;;9.23;;
22973;SDS011;11653;50.848;4.584;2023-10-09T14:23:06;20.33;;;10.10;;
22973;SDS011;11653;50.848;4.584;2023-10-09T14:25:41;15.27;;;9.10;;
22973;SDS011;11653;50.848;4.584;2023-10-09T14:28:09;18.47;;;10.07;;
22973;SDS011;11653;50.848;4.584;2023-10-09T14:30:38;20.77;;;8.87;;
22973;SDS011;11653;50.848;4.584;2023-10-09T14:33:07;18.50;;;9.77;;
22973;SDS011;11653;50.848;4.584;2023-10-09T14:35:37;22.20;;;9.53;;
22973;SDS011;11653;50.848;4.584;2023-10-09T14:38:04;18.73;;;10.10;;
22973;SDS011;11653;50.848;4.584;2023-10-09T14:40:37;24.07;;;9.77;;
22973;SDS011;11653;50.848;4.584;2023-10-09T14:43:07;18.97;;;9.73;;
22973;SDS011;11653;50.848;4.584;2023-10-09T14:45:36;19.90;;;9.63;;
22973;SDS011;11653;50.848;4.584;2023-10-09T14:48:02;20.90;;;10.97;;
22973;SDS011;11653;50.848;4.584;2023-10-09T14:50:28;18.40;;;10.10;;
22973;SDS011;11653;50.848;4.584;2023-10-09T14:52:54;22.83;;;10.10;;
22973;SDS011;11653;50.848;4.584;2023-10-09T14:55:19;21.77;;;10.60;;
22973;SDS011;11653;50.848;4.584;2023-10-09T14:57:54;17.87;;;9.70;;
22973;SDS011;11653;50.848;4.584;2023-10-09T15:00:20;15.60;;;10.13;;
22973;SDS011;11653;50.848;4.584;2023-10-09T15:02:49;20.73;;;11.00;;
22973;SDS011;11653;50.848;4.584;2023-10-09T15:05:16;20.13;;;10.00;;
22973;SDS011;11653;50.848;4.584;2023-10-09T15:07:41;21.20;;;10.17;;
22973;SDS011;11653;50.848;4.584;2023-10-09T15:10:07;30.87;;;9.43;;
22973;SDS011;11653;50.848;4.584;2023-10-09T15:12:40;16.17;;;9.03;;
22973;SDS011;11653;50.848;4.584;2023-10-09T15:15:08;22.60;;;9.70;;
22973;SDS011;11653;50.848;4.584;2023-10-09T15:17:39;18.80;;;9.00;;
22973;SDS011;11653;50.848;4.584;2023-10-09T15:20:10;17.93;;;9.33;;
22973;SDS011;11653;50.848;4.584;2023-10-09T15:22:39;18.00;;;9.17;;
22973;SDS011;11653;50.848;4.584;2023-10-09T15:25:08;15.53;;;8.87;;
22973;SDS011;11653;50.848;4.584;2023-10-09T15:27:39;17.77;;;9.53;;
22973;SDS011;11653;50.848;4.584;2023-10-09T15:30:07;13.93;;;8.80;;
22973;SDS011;11653;50.848;4.584;2023-10-09T15:32:38;17.90;;;9.73;;
22973;SDS011;11653;50.848;4.584;2023-10-09T15:35:05;18.73;;;8.60;;
22973;SDS011;11653;50.848;4.584;2023-10-09T15:37:35;17.10;;;9.80;;
22973;SDS011;11653;50.848;4.584;2023-10-09T15:40:01;19.17;;;9.10;;
22973;SDS011;11653;50.848;4.584;2023-10-09T15:42:39;19.20;;;9.60;;